createdAt,value
2023-02-19T00:00:00.525Z,71
2023-02-19T00:15:00.562Z,71
2023-02-19T00:30:00.720Z,71
2023-02-19T00:45:00.576Z,72
2023-02-19T01:00:00.545Z,72
2023-02-19T01:15:00.565Z,72
2023-02-19T01:30:00.734Z,72
2023-02-19T01:45:00.513Z,72
2023-02-19T02:00:00.601Z,74
2023-02-19T02:15:00.522Z,74
2023-02-19T02:30:00.630Z,74
2023-02-19T02:45:00.535Z,74
2023-02-19T03:00:00.526Z,74
2023-02-19T03:15:00.563Z,74
2023-02-19T03:30:00.740Z,74
2023-02-19T03:45:00.528Z,76
2023-02-19T04:00:00.554Z,76
2023-02-19T04:15:00.578Z,75
2023-02-19T04:30:00.709Z,76
2023-02-19T04:45:00.514Z,76
2023-02-19T05:00:00.547Z,76
2023-02-19T05:15:00.572Z,76
2023-02-19T05:30:00.755Z,76
2023-02-19T05:45:00.706Z,76
2023-02-19T06:00:00.566Z,76
2023-02-19T06:15:00.552Z,77
2023-02-19T06:30:00.739Z,77
2023-02-19T06:45:00.585Z,77
2023-02-19T07:00:00.509Z,77
2023-02-19T07:15:00.564Z,77
2023-02-19T07:30:00.692Z,78
2023-02-19T07:45:00.887Z,78
2023-02-19T08:00:00.588Z,78
2023-02-19T08:15:00.527Z,79
2023-02-19T08:30:00.626Z,79
2023-02-19T08:45:00.556Z,79
2023-02-19T09:00:00.606Z,78
2023-02-19T09:15:00.519Z,78
2023-02-19T09:30:00.697Z,79
2023-02-19T09:45:00.542Z,75
2023-02-19T10:00:00.524Z,71
2023-02-19T10:15:00.520Z,68
2023-02-19T10:30:00.883Z,62
2023-02-19T10:45:00.637Z,54
2023-02-19T11:00:00.573Z,49
2023-02-19T11:15:00.541Z,45
2023-02-19T11:30:00.738Z,42
2023-02-19T11:45:00.520Z,41
2023-02-19T12:00:00.686Z,41
2023-02-19T12:15:00.503Z,40
2023-02-19T12:30:00.670Z,40
2023-02-19T12:45:00.513Z,41
2023-02-19T13:00:00.643Z,44
2023-02-19T13:15:00.629Z,46
2023-02-19T13:30:00.664Z,46
2023-02-19T13:45:00.543Z,46
2023-02-19T14:00:00.607Z,46
2023-02-19T14:15:00.564Z,46
2023-02-19T14:30:00.595Z,47
2023-02-19T14:45:00.991Z,47
2023-02-19T15:00:00.601Z,47
2023-02-19T15:15:00.624Z,47
2023-02-19T15:30:00.666Z,46
2023-02-19T15:45:00.716Z,47
2023-02-19T16:00:00.633Z,47
2023-02-19T16:15:00.616Z,48
2023-02-19T16:30:00.750Z,47
2023-02-19T16:45:00.759Z,47
2023-02-19T17:00:00.524Z,48
2023-02-19T17:15:00.578Z,48
2023-02-19T17:30:00.684Z,48
2023-02-19T17:45:00.694Z,48
2023-02-19T18:00:00.547Z,49
2023-02-19T18:15:00.618Z,50
2023-02-19T18:30:00.662Z,51
2023-02-19T18:45:00.530Z,52
2023-02-19T19:00:00.557Z,53
2023-02-19T19:15:00.616Z,53
2023-02-19T19:30:00.639Z,53
2023-02-19T19:45:00.765Z,53
2023-02-19T20:00:00.540Z,54
2023-02-19T20:15:00.588Z,54
2023-02-19T20:30:00.536Z,55
2023-02-19T20:45:00.503Z,55
2023-02-19T21:00:00.499Z,56
2023-02-19T21:15:00.551Z,56
2023-02-19T21:30:00.562Z,57
2023-02-19T21:45:00.520Z,57
2023-02-19T22:00:00.845Z,58
2023-02-19T22:15:00.600Z,58
2023-02-19T22:30:00.511Z,59
2023-02-19T22:45:00.540Z,60
2023-02-19T23:00:00.489Z,60
2023-02-19T23:15:00.603Z,59
2023-02-19T23:30:00.512Z,60
2023-02-19T23:45:00.539Z,60
